Data for 12/20/2016

Time Sea-Level Adjusted Pressure Absolute Pressure Temperature Relative Humidity Dew Point   
(mb) (inHg) (mb) (inHg) (C) (F) (%) (C) (F)
00:05 1021 30.15 851 25.13 -0.4 31.3 41 -12 10.3
00:10 1022 30.18 851 25.13 -0.5 31 43 -11.8 10.8
00:15 1022 30.18 851 25.13 -0.9 30.3 44 -11.9 10.6
00:20 1022 30.18 851 25.13 -1.2 29.9 44 -11.9 10.7
00:25 1021 30.15 851 25.13 -1.2 29.8 45 -11.9 10.7
00:30 1021 30.15 851 25.13 -1.2 29.9 44 -11.9 10.5
00:35 1022 30.18 851 25.13 -1.2 29.9 44 -11.8 10.8
00:40 1022 30.18 851 25.13 -1.3 29.7 45 -11.9 10.7
00:45 1022 30.18 851 25.13 -1.4 29.5 46 -11.6 11.1
00:50 1022 30.18 851 25.13 -1.7 29 46 -11.9 10.7
00:55 1022 30.18 851 25.13 -1.7 29 46 -11.8 10.7
01:00 1021 30.15 851 25.13 -1.8 28.7 46 -12 10.4
01:05 1021 30.15 851 25.13 -1.8 28.7 46 -12 10.5
01:10 1021 30.15 851 25.13 -1.8 28.8 47 -11.7 11
01:15 1022 30.18 851 25.13 -1.7 28.9 48 -11.4 11.5
01:20 1022 30.18 851 25.13 -1.6 29 48 -11.3 11.6
01:25 1022 30.18 851 25.13 -1.7 28.9 49 -11 12.2
01:30 1022 30.18 851 25.13 -1.9 28.6 50 -10.9 12.5
01:35 1022 30.18 851 25.13 -2.1 28.2 51 -11 12.2
01:40 1022 30.18 851 25.13 -2.3 27.9 50 -11.3 11.6
01:45 1022 30.18 851 25.13 -2.3 27.8 51 -11 12.1
01:50 1022 30.18 851 25.13 -2.5 27.5 51 -11.3 11.6
01:55 1022 30.18 851 25.13 -2.1 28.2 50 -11.3 11.7
02:00 1022 30.18 851 25.13 -1.2 29.9 46 -11.5 11.3
02:05 1022 30.18 851 25.13 -0.5 31.1 44 -11.3 11.6
02:10 1022 30.18 851 25.13 -0.3 31.4 45 -10.9 12.4
02:15 1022 30.18 851 25.13 -0.6 31 46 -10.9 12.3
02:20 1022 30.18 851 25.13 -0.7 30.8 46 -10.9 12.3
02:25 1022 30.18 851 25.13 -0.5 31.2 45 -10.9 12.3
02:30 1022 30.18 851 25.13 -0 32 43 -11.2 11.9
02:35 1022 30.18 851 25.13 0.3 32.5 44 -10.6 12.8
02:40 1022 30.18 851 25.13 0.3 32.6 41 -11.4 11.5
02:45 1022 30.18 851 25.13 0.8 33.4 42 -10.8 12.6
02:50 1022 30.18 851 25.13 0.8 33.5 41 -11 12.1
02:55 1022 30.18 851 25.13 0.9 33.6 41 -11 12.1
03:00 1021 30.15 851 25.13 1 33.7 41 -11 12.3
03:05 1021 30.15 850 25.1 1.2 34.2 39 -11.4 11.5
03:10 1021 30.15 850 25.1 1.7 35 37 -11.5 11.3
03:15 1021 30.15 850 25.1 1.8 35.2 38 -11.3 11.7
03:20 1021 30.15 850 25.1 1.6 34.9 38 -11.3 11.7
03:25 1021 30.15 850 25.1 1.7 35 37 -11.6 11.1
03:30 1021 30.15 850 25.1 1.8 35.2 38 -11.1 12.1
03:35 1021 30.15 850 25.1 1.4 34.5 39 -11.3 11.7
03:40 1021 30.15 850 25.1 1.3 34.4 38 -11.6 11.2
03:45 1020 30.12 850 25.1 1.4 34.4 39 -11.2 11.8
03:50 1020 30.12 850 25.1 1.2 34.2 39 -11.1 12
03:55 1020 30.12 849 25.07 0.9 33.7 39 -11.4 11.5
04:00 1020 30.12 849 25.07 1 33.8 40 -11.2 11.8
04:05 1020 30.12 849 25.07 1.1 34 40 -11.2 11.9
04:10 1020 30.12 849 25.07 1.2 34.2 39 -11.2 11.9
04:15 1020 30.12 849 25.07 1.2 34.2 41 -10.7 12.7
04:20 1020 30.12 849 25.07 1.1 33.9 43 -10.3 13.4
04:25 1020 30.12 849 25.07 0.5 32.9 44 -10.3 13.4
04:30 1020 30.12 849 25.07 -0.4 31.4 46 -10.6 12.9
04:35 1020 30.12 849 25.07 -0 32 45 -10.7 12.7
04:40 1019 30.09 849 25.07 0.3 32.6 46 -10.1 13.8
04:45 1019 30.09 848 25.04 0.1 32.2 43 -10.9 12.4
04:50 1019 30.09 848 25.04 -0.1 31.9 45 -10.6 13
04:55 1019 30.09 848 25.04 -0.4 31.2 46 -10.8 12.6
05:00 1019 30.09 848 25.04 -0.6 31 47 -10.6 12.8
05:05 1019 30.09 848 25.04 -0.7 30.7 46 -10.9 12.3
05:10 1019 30.09 848 25.04 -0.5 31.1 45 -10.9 12.3
05:15 1019 30.09 848 25.04 -0.2 31.7 44 -11.1 11.9
05:20 1018 30.06 848 25.04 -0.1 31.9 45 -10.6 13
05:25 1018 30.06 848 25.04 -0.4 31.3 46 -10.7 12.7
05:30 1018 30.06 847 25.01 -0.5 31.1 47 -10.5 13.1
05:35 1018 30.06 847 25.01 -0.7 30.8 47 -10.6 13
05:40 1018 30.06 847 25.01 -0.8 30.6 48 -10.4 13.2
05:45 1018 30.06 848 25.04 -0.9 30.3 48 -10.5 13.1
05:50 1018 30.06 848 25.04 -1 30.2 50 -10.2 13.6
05:55 1018 30.06 848 25.04 -1.1 30 50 -10.3 13.4
06:00 1018 30.06 847 25.01 -1.2 29.9 50 -10.4 13.3
06:05 1018 30.06 847 25.01 -1.3 29.7 51 -10.3 13.5
06:10 1018 30.06 847 25.01 -1.2 29.9 48 -10.9 12.4
06:15 1018 30.06 847 25.01 -1 30.1 48 -10.6 12.9
06:20 1018 30.06 847 25.01 -1 30.1 48 -10.7 12.8
06:25 1018 30.06 847 25.01 -1 30.2 47 -10.8 12.5
06:30 1018 30.06 847 25.01 -1 30.1 48 -10.8 12.6
06:35 1018 30.06 847 25.01 -1.1 30.1 47 -10.9 12.3
06:40 1018 30.06 847 25.01 -1.1 30 48 -10.7 12.7
06:45 1018 30.06 847 25.01 -1.1 30.1 48 -10.7 12.7
06:50 1018 30.06 847 25.01 -1.1 30 48 -10.8 12.5
06:55 1018 30.06 847 25.01 -1 30.1 47 -11 12.1
07:00 1018 30.06 847 25.01 -1 30.1 47 -11 12.2
07:05 1018 30.06 847 25.01 -0.9 30.3 46 -11.2 11.9
07:10 1018 30.06 847 25.01 -0.9 30.3 47 -10.9 12.3
07:15 1018 30.06 847 25.01 -0.9 30.4 47 -10.9 12.5
07:20 1018 30.06 847 25.01 -0.7 30.7 46 -11 12.2
07:25 1018 30.06 847 25.01 -0.7 30.8 47 -10.7 12.7
07:30 1018 30.06 847 25.01 -0.8 30.5 47 -10.9 12.3
07:35 1018 30.06 847 25.01 -0.7 30.7 48 -10.5 13.1
07:40 1018 30.06 847 25.01 -0.8 30.5 48 -10.6 12.9
07:45 1018 30.06 847 25.01 -1 30.2 49 -10.5 13.2
07:50 1018 30.06 847 25.01 -1.1 30 47 -10.9 12.3
07:55 1018 30.06 847 25.01 -1.1 30 50 -10.4 13.3
08:00 1018 30.06 847 25.01 -1.2 29.8 51 -10.1 13.8
08:05 1018 30.06 847 25.01 -1.3 29.6 54 -9.5 14.9
08:10 1018 30.06 847 25.01 -1.5 29.3 52 -10.2 13.6
08:15 1018 30.06 847 25.01 -1.3 29.7 52 -9.8 14.3
08:20 1018 30.06 847 25.01 -1.2 29.9 56 -8.9 15.9
08:25 1018 30.06 847 25.01 -1 30.3 51 -10 14.1
08:30 1018 30.06 847 25.01 -0.9 30.5 53 -9.3 15.3
08:35 1018 30.06 847 25.01 -1 30.2 52 -9.8 14.4
08:40 1018 30.06 847 25.01 -0.9 30.4 53 -9.3 15.2
08:45 1018 30.06 847 25.01 -0.8 30.5 53 -9.3 15.2
08:50 1018 30.06 847 25.01 -0.7 30.8 53 -9.1 15.5
08:55 1018 30.06 847 25.01 -0.6 30.9 51 -9.5 15
09:00 1017 30.03 847 25.01 -0.4 31.3 51 -9.3 15.3
09:05 1018 30.06 847 25.01 -0.2 31.6 51 -9.2 15.5
09:10 1018 30.06 847 25.01 0 32 51 -9 15.8
09:15 1018 30.06 847 25.01 0.2 32.4 50 -9 15.8
09:20 1018 30.06 847 25.01 0.4 32.7 51 -8.7 16.4
09:25 1018 30.06 847 25.01 0.4 32.7 51 -8.7 16.3
09:30 1018 30.06 847 25.01 0.5 32.9 50 -8.7 16.3
09:35 1018 30.06 847 25.01 0.7 33.2 49 -8.8 16.1
09:40 1018 30.06 847 25.01 0.8 33.5 49 -8.8 16.2
09:45 1018 30.06 847 25.01 0.9 33.7 49 -8.5 16.7
09:50 1018 30.06 847 25.01 1 33.7 50 -8.2 17.2
09:55 1018 30.06 847 25.01 1 33.8 50 -8.2 17.2
10:00 1017 30.03 847 25.01 1.1 34 50 -8.2 17.2
10:05 1017 30.03 847 25.01 1.2 34.2 50 -8.1 17.4
10:10 1018 30.06 847 25.01 1.4 34.5 50 -7.9 17.8
10:15 1018 30.06 847 25.01 1.5 34.7 49 -8 17.7
10:20 1018 30.06 847 25.01 1.6 34.8 50 -7.7 18.2
10:25 1018 30.06 847 25.01 1.5 34.8 50 -7.8 18
10:30 1018 30.06 847 25.01 1.7 35 49 -7.9 17.8
10:35 1018 30.06 847 25.01 1.8 35.2 50 -7.6 18.3
10:40 1018 30.06 847 25.01 1.9 35.4 49 -7.7 18.1
10:45 1018 30.06 847 25.01 2 35.5 52 -7 19.5
10:50 1018 30.06 847 25.01 2 35.5 49 -7.6 18.2
10:55 1018 30.06 847 25.01 2.3 36.1 49 -7.3 18.9
11:00 1018 30.06 847 25.01 2.6 36.6 49 -7 19.3
11:05 1017 30.03 847 25.01 2.7 36.8 49 -6.9 19.5
11:10 1017 30.03 847 25.01 2.7 36.9 50 -6.7 19.9
11:15 1017 30.03 847 25.01 2.8 37 49 -6.8 19.8
11:20 1017 30.03 847 25.01 2.6 36.7 51 -6.4 20.4
11:25 1017 30.03 846 24.98 2.6 36.7 52 -6.3 20.7
11:30 1017 30.03 846 24.98 2.6 36.6 52 -6.3 20.6
11:35 1017 30.03 846 24.98 2.3 36.2 52 -6.5 20.2
11:40 1017 30.03 846 24.98 2.4 36.2 52 -6.5 20.3
11:45 1017 30.03 846 24.98 2.2 36 52 -6.6 20.2
11:50 1017 30.03 846 24.98 2.5 36.4 52 -6.3 20.6
11:55 1017 30.03 846 24.98 2.6 36.6 52 -6.3 20.6
12:00 1017 30.03 846 24.98 2.4 36.4 52 -6.4 20.5
12:05 1017 30.03 846 24.98 2.5 36.6 53 -6 21.2
12:10 1017 30.03 846 24.98 2.7 36.8 52 -6.1 21
12:15 1017 30.03 846 24.98 2.7 36.8 53 -6 21.1
12:20 1016 30 846 24.98 2.8 37 52 -6 21.1
12:25 1016 30 846 24.98 2.9 37.1 53 -5.7 21.8
12:30 1016 30 845 24.95 2.9 37.3 52 -5.9 21.3
12:35 1016 30 845 24.95 2.8 37 52 -6.1 21.1
12:40 1016 30 845 24.95 2.9 37.3 51 -6.2 20.8
12:45 1016 30 845 24.95 3.2 37.7 51 -6.1 21.1
12:50 1016 30 845 24.95 3.4 38.2 50 -6 21.1
12:55 1016 30 845 24.95 3.6 38.5 52 -5.2 22.6
13:00 1015 29.97 845 24.95 3.8 38.8 52 -5.3 22.5
13:05 1015 29.97 844 24.92 4.5 40.1 48 -5.5 22.1
13:10 1015 29.97 844 24.92 4.5 40.1 51 -4.7 23.6
13:15 1015 29.97 844 24.92 4.9 40.8 50 -4.8 23.4
13:20 1015 29.97 844 24.92 5.1 41.1 51 -4.2 24.5
13:25 1015 29.97 844 24.92 5.1 41.3 51 -4.1 24.6
13:30 1015 29.97 844 24.92 5.2 41.3 52 -3.9 25.1
13:35 1015 29.97 844 24.92 5.3 41.5 53 -3.6 25.6
13:40 1015 29.97 844 24.92 5.8 42.4 52 -3.3 26
13:45 1015 29.97 844 24.92 5.8 42.5 52 -3.2 26.3
13:50 1015 29.97 844 24.92 5.7 42.2 53 -3 26.5
13:55 1015 29.97 844 24.92 5.6 42 54 -3.1 26.4
14:00 1015 29.97 844 24.92 5.5 42 54 -3.1 26.4
14:05 1015 29.97 844 24.92 5.4 41.8 55 -2.9 26.7
14:10 1015 29.97 844 24.92 5.3 41.5 54 -3.2 26.2
14:15 1015 29.97 844 24.92 5.4 41.7 54 -3.1 26.4
14:20 1015 29.97 844 24.92 5.3 41.5 55 -3 26.7
14:25 1015 29.97 844 24.92 5.1 41.3 56 -2.9 26.8
14:30 1015 29.97 844 24.92 5.2 41.3 56 -2.8 26.9
14:35 1015 29.97 844 24.92 5.2 41.3 56 -2.9 26.7
14:40 1015 29.97 844 24.92 5.2 41.3 56 -2.8 26.9
14:45 1015 29.97 844 24.92 5.1 41.2 56 -2.9 26.9
14:50 1015 29.97 844 24.92 4.9 40.9 58 -2.7 27.1
14:55 1015 29.97 844 24.92 4.8 40.6 59 -2.6 27.3
15:00 1015 29.97 844 24.92 4.7 40.5 59 -2.6 27.4
15:05 1015 29.97 844 24.92 4.7 40.5 59 -2.6 27.3
15:10 1015 29.97 844 24.92 4.7 40.4 60 -2.4 27.7
15:15 1015 29.97 844 24.92 4.8 40.7 60 -2.4 27.7
15:20 1014 29.94 844 24.92 4.9 40.8 57 -2.9 26.7
15:25 1014 29.94 843 24.89 5.2 41.4 56 -2.8 27
15:30 1014 29.94 843 24.89 5.2 41.4 55 -3.1 26.5
15:35 1014 29.94 843 24.89 5.3 41.5 54 -3.3 26
15:40 1014 29.94 843 24.89 5.3 41.5 54 -3.3 26
15:45 1014 29.94 843 24.89 5.3 41.5 53 -3.4 25.8
15:50 1014 29.94 843 24.89 5.3 41.6 54 -3.3 26.1
15:55 1013 29.91 842 24.86 5.6 42.1 52 -3.6 25.5
16:00 1013 29.91 842 24.86 5.5 41.9 53 -3.3 26
16:05 1013 29.91 842 24.86 5.2 41.4 53 -3.7 25.4
16:10 1013 29.91 842 24.86 5.2 41.4 53 -3.6 25.6
16:15 1013 29.91 843 24.89 5.2 41.3 52 -3.8 25.2
16:20 1013 29.91 843 24.89 5.1 41.2 52 -4 24.9
16:25 1013 29.91 843 24.89 5.1 41.3 51 -4 24.7
16:30 1013 29.91 843 24.89 5.1 41.2 53 -3.8 25.2
16:35 1013 29.91 843 24.89 5 40.9 53 -3.9 25
16:40 1013 29.91 843 24.89 5 40.9 52 -4 24.9
16:45 1013 29.91 842 24.86 4.9 40.9 52 -4.1 24.7
16:50 1013 29.91 842 24.86 4.9 40.8 53 -4 24.8
16:55 1013 29.91 842 24.86 4.8 40.6 53 -3.9 25
17:00 1013 29.91 842 24.86 4.7 40.4 53 -4.1 24.7
17:05 1013 29.91 842 24.86 4.8 40.6 50 -4.6 23.7
17:10 1013 29.91 842 24.86 5.1 41.1 49 -4.8 23.3
17:15 1013 29.91 842 24.86 5.3 41.6 48 -4.9 23.3
17:20 1013 29.91 842 24.86 5.6 42.1 45 -5.5 22.1
17:25 1013 29.91 842 24.86 5.7 42.3 46 -4.9 23.2
17:30 1013 29.91 842 24.86 5.6 42.1 47 -4.8 23.3
17:35 1013 29.91 842 24.86 5.5 42 48 -4.7 23.6
17:40 1013 29.91 842 24.86 5.5 41.8 48 -4.7 23.6
17:45 1013 29.91 842 24.86 5.4 41.7 48 -4.7 23.6
17:50 1013 29.91 842 24.86 5.4 41.7 48 -4.6 23.7
17:55 1013 29.91 842 24.86 5.4 41.6 48 -4.8 23.4
18:00 1013 29.91 842 24.86 5.4 41.8 47 -5 23
18:05 1013 29.91 843 24.89 5.5 41.9 46 -5.2 22.7
18:10 1013 29.91 843 24.89 5.6 42 47 -5 23
18:15 1014 29.94 843 24.89 5.5 41.9 48 -4.7 23.5
18:20 1014 29.94 843 24.89 5.5 41.8 49 -4.5 23.8
18:25 1014 29.94 843 24.89 5.4 41.7 49 -4.4 24
18:30 1014 29.94 843 24.89 5.4 41.7 49 -4.5 23.8
18:35 1014 29.94 843 24.89 5.4 41.7 51 -4 24.9
18:40 1014 29.94 844 24.92 4.9 40.8 58 -2.7 27.2
18:45 1015 29.97 844 24.92 4.3 39.7 57 -3.4 25.8
18:50 1015 29.97 844 24.92 4.1 39.4 60 -2.9 26.8
18:55 1016 30 845 24.95 3.3 38 72 -1.2 29.8
19:00 1016 30 846 24.98 1.3 34.4 82 -1.4 29.5
19:05 1017 30.03 846 24.98 0.5 32.8 84 -2 28.4
19:10 1017 30.03 846 24.98 0.2 32.3 84 -2.2 28
19:15 1017 30.03 846 24.98 0.1 32.2 84 -2.3 27.8
19:20 1017 30.03 846 24.98 0.1 32.2 82 -2.7 27.1
19:25 1017 30.03 846 24.98 0.1 32.2 80 -3 26.7
19:30 1017 30.03 847 25.01 0.1 32.2 78 -3.3 26
19:35 1017 30.03 847 25.01 0.2 32.3 76 -3.7 25.4
19:40 1017 30.03 847 25.01 0.2 32.3 74 -4 24.8
19:45 1018 30.06 847 25.01 0.3 32.5 72 -4.1 24.6
19:50 1018 30.06 847 25.01 0.3 32.5 72 -4.3 24.3
19:55 1018 30.06 847 25.01 0.3 32.5 69 -4.7 23.6
20:00 1018 30.06 847 25.01 0.3 32.5 67 -5.1 22.8
20:05 1018 30.06 847 25.01 0.3 32.6 64 -5.8 21.6
20:10 1018 30.06 847 25.01 0.4 32.7 58 -6.8 19.7
20:15 1018 30.06 847 25.01 0.5 32.9 50 -8.8 16.1
20:20 1018 30.06 847 25.01 0.6 33.1 46 -9.8 14.3
20:25 1018 30.06 847 25.01 0.5 32.9 46 -9.9 14.1
20:30 1018 30.06 847 25.01 0.3 32.5 46 -10.1 13.8
20:35 1018 30.06 847 25.01 0.1 32.3 41 -11.6 11.2
20:40 1018 30.06 847 25.01 0.2 32.4 38 -12.5 9.5
20:45 1018 30.06 847 25.01 0.2 32.4 38 -12.5 9.6
20:50 1018 30.06 848 25.04 0.1 32.2 39 -12.2 10.1
20:55 1018 30.06 848 25.04 -0.1 31.8 40 -12.2 10
21:00 1019 30.09 848 25.04 -0.2 31.7 39 -12.4 9.6
21:05 1019 30.09 848 25.04 -0.4 31.3 41 -12.3 9.9
21:10 1019 30.09 848 25.04 -0.6 30.9 42 -12.1 10.1
21:15 1019 30.09 848 25.04 -0.9 30.5 43 -12 10.4
21:20 1019 30.09 848 25.04 -1.1 30 45 -11.6 11.1
21:25 1019 30.09 848 25.04 -1.2 29.8 46 -11.4 11.4
21:30 1019 30.09 848 25.04 -1.2 29.8 45 -11.6 11.1
21:35 1019 30.09 848 25.04 -1.4 29.6 45 -11.8 10.7
21:40 1019 30.09 849 25.07 -1.5 29.3 44 -12.2 10
21:45 1019 30.09 849 25.07 -1.4 29.6 44 -12.1 10.2
21:50 1020 30.12 849 25.07 -1.4 29.5 44 -12.2 10.1
21:55 1020 30.12 849 25.07 -1.5 29.3 45 -12.1 10.3
22:00 1020 30.12 849 25.07 -1.6 29.2 44 -12.2 10
22:05 1020 30.12 849 25.07 -1.7 28.9 45 -12.1 10.1
22:10 1020 30.12 849 25.07 -1.9 28.7 44 -12.6 9.4
22:15 1020 30.12 849 25.07 -1.8 28.7 43 -12.9 8.9
22:20 1020 30.12 849 25.07 -1.8 28.8 41 -13.4 7.9
22:25 1020 30.12 849 25.07 -1.6 29.1 39 -14 6.8
22:30 1020 30.12 849 25.07 -1.6 29.2 40 -13.6 7.5
22:35 1020 30.12 849 25.07 -1.7 29 39 -14 6.8
22:40 1020 30.12 850 25.1 -1.7 29 37 -14.4 6.1
22:45 1020 30.12 850 25.1 -1.6 29.2 38 -14.3 6.3
22:50 1021 30.15 850 25.1 -1.7 28.9 39 -13.8 7.1
22:55 1021 30.15 850 25.1 -1.8 28.7 37 -14.8 5.3
23:00 1021 30.15 850 25.1 -1.6 29.1 35 -15.1 4.7
23:05 1021 30.15 850 25.1 -1.6 29.1 38 -14.3 6.2
23:10 1021 30.15 850 25.1 -1.9 28.6 37 -14.7 5.5
23:15 1021 30.15 850 25.1 -1.8 28.8 36 -15 4.9
23:20 1021 30.15 850 25.1 -1.6 29.1 36 -14.7 5.6
23:25 1021 30.15 850 25.1 -1.8 28.8 38 -14.3 6.2
23:30 1021 30.15 851 25.13 -1.9 28.5 39 -14.3 6.3
23:35 1021 30.15 851 25.13 -2.1 28.3 39 -14.2 6.4
23:40 1022 30.18 851 25.13 -2.2 28 40 -14.2 6.5
23:45 1022 30.18 851 25.13 -2.3 27.9 40 -14.1 6.6
23:50 1021 30.15 851 25.13 -2.4 27.8 41 -13.8 7.1
23:55 1022 30.18 851 25.13 -2.5 27.5 42 -13.8 7.2
24:00 1022 30.18 851 25.13 -2.5 27.5 43 -13.4 7.9